sensor_id;sensor_type;location;lat;lon;timestamp;P1;durP1;ratioP1;P2;durP2;ratioP2
21430;SDS011;10876;49.038;10.608;2023-04-02T00:06:38;0.93;;;0.82;;
21430;SDS011;10876;49.038;10.608;2023-04-02T00:12:15;1.10;;;0.60;;
21430;SDS011;10876;49.038;10.608;2023-04-02T00:14:51;1.55;;;0.73;;
21430;SDS011;10876;49.038;10.608;2023-04-02T00:17:20;1.67;;;0.80;;
21430;SDS011;10876;49.038;10.608;2023-04-02T00:19:52;1.05;;;0.80;;
21430;SDS011;10876;49.038;10.608;2023-04-02T00:22:24;1.40;;;0.80;;
21430;SDS011;10876;49.038;10.608;2023-04-02T00:24:54;3.22;;;1.30;;
21430;SDS011;10876;49.038;10.608;2023-04-02T00:27:23;1.98;;;0.73;;
21430;SDS011;10876;49.038;10.608;2023-04-02T00:29:51;0.98;;;0.90;;
21430;SDS011;10876;49.038;10.608;2023-04-02T00:32:20;1.85;;;1.00;;
21430;SDS011;10876;49.038;10.608;2023-04-02T00:34:50;1.40;;;1.10;;
21430;SDS011;10876;49.038;10.608;2023-04-02T00:37:19;1.15;;;0.82;;
21430;SDS011;10876;49.038;10.608;2023-04-02T00:39:50;1.48;;;0.80;;
21430;SDS011;10876;49.038;10.608;2023-04-02T00:42:23;3.97;;;1.38;;
21430;SDS011;10876;49.038;10.608;2023-04-02T00:44:52;3.55;;;1.20;;
21430;SDS011;10876;49.038;10.608;2023-04-02T00:47:21;3.78;;;0.85;;
21430;SDS011;10876;49.038;10.608;2023-04-02T00:49:53;2.92;;;1.20;;
21430;SDS011;10876;49.038;10.608;2023-04-02T00:52:25;1.45;;;1.02;;
21430;SDS011;10876;49.038;10.608;2023-04-02T00:54:58;2.30;;;1.20;;
21430;SDS011;10876;49.038;10.608;2023-04-02T00:57:31;1.00;;;0.90;;
21430;SDS011;10876;49.038;10.608;2023-04-02T00:59:59;4.07;;;1.02;;
21430;SDS011;10876;49.038;10.608;2023-04-02T01:02:36;2.92;;;1.15;;
21430;SDS011;10876;49.038;10.608;2023-04-02T01:05:19;1.38;;;0.90;;
21430;SDS011;10876;49.038;10.608;2023-04-02T01:07:54;3.97;;;1.50;;
21430;SDS011;10876;49.038;10.608;2023-04-02T01:13:27;1.25;;;1.15;;
21430;SDS011;10876;49.038;10.608;2023-04-02T01:15:59;1.42;;;1.10;;
21430;SDS011;10876;49.038;10.608;2023-04-02T01:18:34;4.40;;;1.65;;
21430;SDS011;10876;49.038;10.608;2023-04-02T01:24:10;1.15;;;1.05;;
21430;SDS011;10876;49.038;10.608;2023-04-02T01:26:44;1.20;;;0.90;;
21430;SDS011;10876;49.038;10.608;2023-04-02T01:29:19;1.38;;;1.17;;
21430;SDS011;10876;49.038;10.608;2023-04-02T01:31:48;1.25;;;1.08;;
21430;SDS011;10876;49.038;10.608;2023-04-02T01:34:21;1.42;;;1.13;;
21430;SDS011;10876;49.038;10.608;2023-04-02T01:36:53;1.80;;;1.30;;
21430;SDS011;10876;49.038;10.608;2023-04-02T01:39:38;1.20;;;1.10;;
21430;SDS011;10876;49.038;10.608;2023-04-02T01:42:14;1.50;;;1.40;;
21430;SDS011;10876;49.038;10.608;2023-04-02T01:44:47;2.10;;;1.15;;
21430;SDS011;10876;49.038;10.608;2023-04-02T01:47:16;2.03;;;1.25;;
21430;SDS011;10876;49.038;10.608;2023-04-02T01:49:44;1.15;;;1.10;;
21430;SDS011;10876;49.038;10.608;2023-04-02T01:52:12;2.70;;;1.20;;
21430;SDS011;10876;49.038;10.608;2023-04-02T01:54:43;1.10;;;1.00;;
21430;SDS011;10876;49.038;10.608;2023-04-02T01:57:12;2.72;;;1.30;;
21430;SDS011;10876;49.038;10.608;2023-04-02T01:59:39;1.77;;;1.38;;
21430;SDS011;10876;49.038;10.608;2023-04-02T02:02:08;1.60;;;1.10;;
21430;SDS011;10876;49.038;10.608;2023-04-02T02:04:37;1.60;;;1.20;;
21430;SDS011;10876;49.038;10.608;2023-04-02T02:07:04;1.77;;;1.00;;
21430;SDS011;10876;49.038;10.608;2023-04-02T02:09:38;3.70;;;1.40;;
21430;SDS011;10876;49.038;10.608;2023-04-02T02:12:06;1.45;;;1.00;;
21430;SDS011;10876;49.038;10.608;2023-04-02T02:14:34;2.38;;;1.63;;
21430;SDS011;10876;49.038;10.608;2023-04-02T02:17:01;1.85;;;1.10;;
21430;SDS011;10876;49.038;10.608;2023-04-02T02:19:39;1.95;;;0.90;;
21430;SDS011;10876;49.038;10.608;2023-04-02T02:22:10;4.10;;;1.40;;
21430;SDS011;10876;49.038;10.608;2023-04-02T02:24:41;1.00;;;0.90;;
21430;SDS011;10876;49.038;10.608;2023-04-02T02:27:15;1.02;;;0.90;;
21430;SDS011;10876;49.038;10.608;2023-04-02T02:30:10;3.67;;;1.10;;
21430;SDS011;10876;49.038;10.608;2023-04-02T02:32:42;1.10;;;1.00;;
21430;SDS011;10876;49.038;10.608;2023-04-02T02:35:17;1.65;;;1.10;;
21430;SDS011;10876;49.038;10.608;2023-04-02T02:37:49;1.45;;;1.10;;
21430;SDS011;10876;49.038;10.608;2023-04-02T02:40:23;1.60;;;1.20;;
21430;SDS011;10876;49.038;10.608;2023-04-02T02:42:55;2.08;;;0.90;;
21430;SDS011;10876;49.038;10.608;2023-04-02T02:45:26;1.48;;;1.10;;
21430;SDS011;10876;49.038;10.608;2023-04-02T02:47:56;3.30;;;1.10;;
21430;SDS011;10876;49.038;10.608;2023-04-02T02:50:26;3.42;;;1.20;;
21430;SDS011;10876;49.038;10.608;2023-04-02T02:52:56;1.58;;;1.00;;
21430;SDS011;10876;49.038;10.608;2023-04-02T02:55:25;3.28;;;1.40;;
21430;SDS011;10876;49.038;10.608;2023-04-02T02:57:57;1.40;;;1.10;;
21430;SDS011;10876;49.038;10.608;2023-04-02T03:00:28;1.13;;;1.02;;
21430;SDS011;10876;49.038;10.608;2023-04-02T03:02:56;1.80;;;1.15;;
21430;SDS011;10876;49.038;10.608;2023-04-02T03:05:23;3.70;;;1.00;;
21430;SDS011;10876;49.038;10.608;2023-04-02T03:07:54;2.13;;;1.60;;
21430;SDS011;10876;49.038;10.608;2023-04-02T03:10:23;1.90;;;1.20;;
21430;SDS011;10876;49.038;10.608;2023-04-02T03:12:58;2.05;;;0.80;;
21430;SDS011;10876;49.038;10.608;2023-04-02T03:15:34;1.00;;;0.90;;
21430;SDS011;10876;49.038;10.608;2023-04-02T03:18:07;0.90;;;0.90;;
21430;SDS011;10876;49.038;10.608;2023-04-02T03:20:38;2.92;;;0.90;;
21430;SDS011;10876;49.038;10.608;2023-04-02T03:23:13;1.05;;;0.95;;
21430;SDS011;10876;49.038;10.608;2023-04-02T03:25:44;1.15;;;0.88;;
21430;SDS011;10876;49.038;10.608;2023-04-02T03:28:16;1.20;;;0.95;;
21430;SDS011;10876;49.038;10.608;2023-04-02T03:30:49;1.88;;;0.90;;
21430;SDS011;10876;49.038;10.608;2023-04-02T03:33:20;3.33;;;0.90;;
21430;SDS011;10876;49.038;10.608;2023-04-02T03:35:53;1.50;;;0.80;;
21430;SDS011;10876;49.038;10.608;2023-04-02T03:38:26;2.25;;;1.10;;
21430;SDS011;10876;49.038;10.608;2023-04-02T03:40:58;1.75;;;0.80;;
21430;SDS011;10876;49.038;10.608;2023-04-02T03:43:30;2.67;;;1.00;;
21430;SDS011;10876;49.038;10.608;2023-04-02T03:46:02;1.25;;;0.95;;
21430;SDS011;10876;49.038;10.608;2023-04-02T03:48:39;4.07;;;0.88;;
21430;SDS011;10876;49.038;10.608;2023-04-02T03:51:11;1.55;;;0.82;;
21430;SDS011;10876;49.038;10.608;2023-04-02T03:53:43;2.38;;;1.10;;
21430;SDS011;10876;49.038;10.608;2023-04-02T03:56:10;2.95;;;0.90;;
21430;SDS011;10876;49.038;10.608;2023-04-02T03:58:49;1.00;;;0.90;;
21430;SDS011;10876;49.038;10.608;2023-04-02T04:01:22;1.58;;;0.70;;
21430;SDS011;10876;49.038;10.608;2023-04-02T04:03:54;0.80;;;0.80;;
21430;SDS011;10876;49.038;10.608;2023-04-02T04:06:29;3.70;;;1.05;;
21430;SDS011;10876;49.038;10.608;2023-04-02T04:08:58;0.60;;;0.60;;
21430;SDS011;10876;49.038;10.608;2023-04-02T04:11:32;2.33;;;0.98;;
21430;SDS011;10876;49.038;10.608;2023-04-02T04:14:02;1.08;;;1.00;;
21430;SDS011;10876;49.038;10.608;2023-04-02T04:16:38;1.27;;;0.70;;
21430;SDS011;10876;49.038;10.608;2023-04-02T04:19:13;1.05;;;0.80;;
21430;SDS011;10876;49.038;10.608;2023-04-02T04:21:47;1.38;;;0.80;;
21430;SDS011;10876;49.038;10.608;2023-04-02T04:24:15;2.00;;;0.80;;
21430;SDS011;10876;49.038;10.608;2023-04-02T04:26:46;0.80;;;0.70;;
21430;SDS011;10876;49.038;10.608;2023-04-02T04:29:24;1.38;;;0.70;;
21430;SDS011;10876;49.038;10.608;2023-04-02T04:32:07;1.05;;;0.73;;
21430;SDS011;10876;49.038;10.608;2023-04-02T04:34:42;1.48;;;0.90;;
21430;SDS011;10876;49.038;10.608;2023-04-02T04:37:17;0.77;;;0.73;;
21430;SDS011;10876;49.038;10.608;2023-04-02T04:39:51;3.05;;;0.90;;
21430;SDS011;10876;49.038;10.608;2023-04-02T04:42:22;1.05;;;0.80;;
21430;SDS011;10876;49.038;10.608;2023-04-02T04:44:54;1.70;;;0.80;;
21430;SDS011;10876;49.038;10.608;2023-04-02T04:47:26;1.20;;;0.70;;
21430;SDS011;10876;49.038;10.608;2023-04-02T04:49:57;0.73;;;0.73;;
21430;SDS011;10876;49.038;10.608;2023-04-02T04:52:32;0.65;;;0.65;;
21430;SDS011;10876;49.038;10.608;2023-04-02T04:55:01;1.48;;;0.70;;
21430;SDS011;10876;49.038;10.608;2023-04-02T04:57:30;2.03;;;1.23;;
21430;SDS011;10876;49.038;10.608;2023-04-02T05:00:02;1.13;;;0.90;;
21430;SDS011;10876;49.038;10.608;2023-04-02T05:02:34;0.80;;;0.80;;
21430;SDS011;10876;49.038;10.608;2023-04-02T05:05:13;1.27;;;0.90;;
21430;SDS011;10876;49.038;10.608;2023-04-02T05:07:46;1.48;;;0.93;;
21430;SDS011;10876;49.038;10.608;2023-04-02T05:10:18;3.13;;;0.98;;
21430;SDS011;10876;49.038;10.608;2023-04-02T05:12:51;2.15;;;0.85;;
21430;SDS011;10876;49.038;10.608;2023-04-02T05:15:22;2.10;;;0.80;;
21430;SDS011;10876;49.038;10.608;2023-04-02T05:17:53;2.53;;;0.80;;
21430;SDS011;10876;49.038;10.608;2023-04-02T05:20:33;0.82;;;0.80;;
21430;SDS011;10876;49.038;10.608;2023-04-02T05:23:09;1.35;;;0.90;;
21430;SDS011;10876;49.038;10.608;2023-04-02T05:25:49;2.13;;;0.90;;
21430;SDS011;10876;49.038;10.608;2023-04-02T05:28:20;1.65;;;0.90;;
21430;SDS011;10876;49.038;10.608;2023-04-02T05:30:53;2.45;;;0.95;;
21430;SDS011;10876;49.038;10.608;2023-04-02T05:33:26;1.55;;;0.80;;
21430;SDS011;10876;49.038;10.608;2023-04-02T05:35:56;1.48;;;1.00;;
21430;SDS011;10876;49.038;10.608;2023-04-02T05:38:28;1.17;;;1.08;;
21430;SDS011;10876;49.038;10.608;2023-04-02T05:40:58;0.88;;;0.80;;
21430;SDS011;10876;49.038;10.608;2023-04-02T05:43:27;2.60;;;0.80;;
21430;SDS011;10876;49.038;10.608;2023-04-02T05:45:58;1.20;;;1.10;;
21430;SDS011;10876;49.038;10.608;2023-04-02T05:48:31;2.95;;;1.00;;
21430;SDS011;10876;49.038;10.608;2023-04-02T05:51:01;1.20;;;1.10;;
21430;SDS011;10876;49.038;10.608;2023-04-02T05:53:33;2.30;;;1.30;;
21430;SDS011;10876;49.038;10.608;2023-04-02T05:56:05;9.70;;;4.07;;
21430;SDS011;10876;49.038;10.608;2023-04-02T05:58:37;2.35;;;1.30;;
21430;SDS011;10876;49.038;10.608;2023-04-02T06:01:14;4.80;;;1.20;;
21430;SDS011;10876;49.038;10.608;2023-04-02T06:03:49;1.23;;;1.13;;
21430;SDS011;10876;49.038;10.608;2023-04-02T06:06:23;2.63;;;1.30;;
21430;SDS011;10876;49.038;10.608;2023-04-02T06:09:10;2.30;;;1.20;;
21430;SDS011;10876;49.038;10.608;2023-04-02T06:11:42;1.75;;;1.10;;
21430;SDS011;10876;49.038;10.608;2023-04-02T06:14:11;1.35;;;1.20;;
21430;SDS011;10876;49.038;10.608;2023-04-02T06:16:39;1.60;;;1.20;;
21430;SDS011;10876;49.038;10.608;2023-04-02T06:19:07;3.50;;;1.27;;
21430;SDS011;10876;49.038;10.608;2023-04-02T06:21:42;2.05;;;1.35;;
21430;SDS011;10876;49.038;10.608;2023-04-02T06:24:12;3.33;;;1.45;;
21430;SDS011;10876;49.038;10.608;2023-04-02T06:26:42;1.38;;;1.25;;
21430;SDS011;10876;49.038;10.608;2023-04-02T06:29:12;2.97;;;1.38;;
21430;SDS011;10876;49.038;10.608;2023-04-02T06:31:46;2.40;;;1.50;;
21430;SDS011;10876;49.038;10.608;2023-04-02T06:34:16;2.75;;;1.30;;
21430;SDS011;10876;49.038;10.608;2023-04-02T06:36:46;2.22;;;1.50;;
21430;SDS011;10876;49.038;10.608;2023-04-02T06:39:16;1.25;;;1.10;;
21430;SDS011;10876;49.038;10.608;2023-04-02T06:41:50;2.25;;;1.38;;
21430;SDS011;10876;49.038;10.608;2023-04-02T06:44:21;3.22;;;1.48;;
21430;SDS011;10876;49.038;10.608;2023-04-02T06:46:52;4.78;;;1.90;;
21430;SDS011;10876;49.038;10.608;2023-04-02T06:49:24;2.33;;;1.10;;
21430;SDS011;10876;49.038;10.608;2023-04-02T06:51:55;2.05;;;1.40;;
21430;SDS011;10876;49.038;10.608;2023-04-02T06:54:27;4.15;;;1.70;;
21430;SDS011;10876;49.038;10.608;2023-04-02T06:56:54;4.32;;;1.88;;
21430;SDS011;10876;49.038;10.608;2023-04-02T06:59:21;4.00;;;1.77;;
21430;SDS011;10876;49.038;10.608;2023-04-02T07:01:49;3.38;;;1.70;;
21430;SDS011;10876;49.038;10.608;2023-04-02T07:04:19;1.80;;;1.40;;
21430;SDS011;10876;49.038;10.608;2023-04-02T07:06:46;2.15;;;1.27;;
21430;SDS011;10876;49.038;10.608;2023-04-02T07:09:13;2.80;;;1.42;;
21430;SDS011;10876;49.038;10.608;2023-04-02T07:11:41;1.50;;;1.40;;
21430;SDS011;10876;49.038;10.608;2023-04-02T07:14:09;1.98;;;1.45;;
21430;SDS011;10876;49.038;10.608;2023-04-02T07:16:37;1.95;;;1.27;;
21430;SDS011;10876;49.038;10.608;2023-04-02T07:19:05;1.92;;;1.23;;
21430;SDS011;10876;49.038;10.608;2023-04-02T07:21:32;4.60;;;1.38;;
21430;SDS011;10876;49.038;10.608;2023-04-02T07:23:58;3.70;;;1.48;;
21430;SDS011;10876;49.038;10.608;2023-04-02T07:26:25;3.33;;;1.63;;
21430;SDS011;10876;49.038;10.608;2023-04-02T07:28:54;6.30;;;1.52;;
21430;SDS011;10876;49.038;10.608;2023-04-02T07:31:22;1.77;;;1.50;;
21430;SDS011;10876;49.038;10.608;2023-04-02T07:33:50;3.22;;;1.60;;
21430;SDS011;10876;49.038;10.608;2023-04-02T07:36:19;3.83;;;1.48;;
21430;SDS011;10876;49.038;10.608;2023-04-02T07:38:47;3.53;;;1.85;;
21430;SDS011;10876;49.038;10.608;2023-04-02T07:41:15;3.40;;;1.75;;
21430;SDS011;10876;49.038;10.608;2023-04-02T07:43:43;3.65;;;2.10;;
21430;SDS011;10876;49.038;10.608;2023-04-02T07:46:12;4.82;;;1.80;;
21430;SDS011;10876;49.038;10.608;2023-04-02T07:48:41;3.38;;;1.95;;
21430;SDS011;10876;49.038;10.608;2023-04-02T07:51:13;3.83;;;2.20;;
21430;SDS011;10876;49.038;10.608;2023-04-02T07:53:41;3.22;;;2.47;;
21430;SDS011;10876;49.038;10.608;2023-04-02T07:56:08;3.42;;;2.00;;
21430;SDS011;10876;49.038;10.608;2023-04-02T07:58:40;5.57;;;2.10;;
21430;SDS011;10876;49.038;10.608;2023-04-02T08:01:13;3.33;;;1.92;;
21430;SDS011;10876;49.038;10.608;2023-04-02T08:03:41;6.55;;;2.45;;
21430;SDS011;10876;49.038;10.608;2023-04-02T08:06:08;3.38;;;2.38;;
21430;SDS011;10876;49.038;10.608;2023-04-02T08:08:36;3.85;;;2.50;;
21430;SDS011;10876;49.038;10.608;2023-04-02T08:11:03;4.43;;;2.97;;
21430;SDS011;10876;49.038;10.608;2023-04-02T08:13:30;5.97;;;2.42;;
21430;SDS011;10876;49.038;10.608;2023-04-02T08:15:57;3.58;;;2.22;;
21430;SDS011;10876;49.038;10.608;2023-04-02T08:18:26;3.85;;;2.20;;
21430;SDS011;10876;49.038;10.608;2023-04-02T08:20:52;4.15;;;2.35;;
21430;SDS011;10876;49.038;10.608;2023-04-02T08:23:19;4.13;;;2.20;;
21430;SDS011;10876;49.038;10.608;2023-04-02T08:25:46;4.97;;;2.50;;
21430;SDS011;10876;49.038;10.608;2023-04-02T08:28:14;3.90;;;2.50;;
21430;SDS011;10876;49.038;10.608;2023-04-02T08:30:41;4.80;;;2.50;;
21430;SDS011;10876;49.038;10.608;2023-04-02T08:33:08;3.40;;;2.15;;
21430;SDS011;10876;49.038;10.608;2023-04-02T08:35:37;5.63;;;2.53;;
21430;SDS011;10876;49.038;10.608;2023-04-02T08:38:03;3.58;;;2.25;;
21430;SDS011;10876;49.038;10.608;2023-04-02T08:40:32;2.92;;;2.20;;
21430;SDS011;10876;49.038;10.608;2023-04-02T08:43:10;2.65;;;2.00;;
21430;SDS011;10876;49.038;10.608;2023-04-02T08:45:54;3.35;;;2.50;;
21430;SDS011;10876;49.038;10.608;2023-04-02T08:48:27;4.13;;;2.20;;
21430;SDS011;10876;49.038;10.608;2023-04-02T08:50:59;4.00;;;2.30;;
21430;SDS011;10876;49.038;10.608;2023-04-02T08:53:29;2.30;;;2.03;;
21430;SDS011;10876;49.038;10.608;2023-04-02T08:56:01;4.28;;;2.35;;
21430;SDS011;10876;49.038;10.608;2023-04-02T08:58:42;2.97;;;2.13;;
21430;SDS011;10876;49.038;10.608;2023-04-02T09:01:15;3.90;;;2.15;;
21430;SDS011;10876;49.038;10.608;2023-04-02T09:03:50;6.53;;;2.60;;
21430;SDS011;10876;49.038;10.608;2023-04-02T09:06:22;3.63;;;1.98;;
21430;SDS011;10876;49.038;10.608;2023-04-02T09:08:52;4.43;;;2.30;;
21430;SDS011;10876;49.038;10.608;2023-04-02T09:11:21;3.80;;;2.30;;
21430;SDS011;10876;49.038;10.608;2023-04-02T09:13:52;3.88;;;2.00;;
21430;SDS011;10876;49.038;10.608;2023-04-02T09:16:25;3.40;;;2.20;;
21430;SDS011;10876;49.038;10.608;2023-04-02T09:19:11;3.60;;;2.30;;
21430;SDS011;10876;49.038;10.608;2023-04-02T09:21:43;4.25;;;2.63;;
21430;SDS011;10876;49.038;10.608;2023-04-02T09:24:17;2.97;;;1.98;;
21430;SDS011;10876;49.038;10.608;2023-04-02T09:26:44;2.70;;;2.17;;
21430;SDS011;10876;49.038;10.608;2023-04-02T09:29:18;3.83;;;2.33;;
21430;SDS011;10876;49.038;10.608;2023-04-02T09:31:57;3.28;;;2.15;;
21430;SDS011;10876;49.038;10.608;2023-04-02T09:34:33;3.65;;;2.35;;
21430;SDS011;10876;49.038;10.608;2023-04-02T09:37:06;4.28;;;2.88;;
21430;SDS011;10876;49.038;10.608;2023-04-02T09:39:35;4.28;;;2.65;;
21430;SDS011;10876;49.038;10.608;2023-04-02T09:42:05;4.97;;;2.90;;
21430;SDS011;10876;49.038;10.608;2023-04-02T09:44:33;4.63;;;2.50;;
21430;SDS011;10876;49.038;10.608;2023-04-02T09:47:01;3.83;;;2.38;;
21430;SDS011;10876;49.038;10.608;2023-04-02T09:49:29;4.97;;;2.63;;
21430;SDS011;10876;49.038;10.608;2023-04-02T09:52:16;4.43;;;3.00;;
21430;SDS011;10876;49.038;10.608;2023-04-02T09:54:46;5.57;;;2.60;;
21430;SDS011;10876;49.038;10.608;2023-04-02T09:57:41;5.03;;;3.25;;
21430;SDS011;10876;49.038;10.608;2023-04-02T10:00:13;4.00;;;3.10;;
21430;SDS011;10876;49.038;10.608;2023-04-02T10:02:43;3.90;;;2.45;;
21430;SDS011;10876;49.038;10.608;2023-04-02T10:05:17;4.85;;;2.58;;
21430;SDS011;10876;49.038;10.608;2023-04-02T10:07:48;4.38;;;2.63;;
21430;SDS011;10876;49.038;10.608;2023-04-02T10:10:18;4.10;;;2.63;;
21430;SDS011;10876;49.038;10.608;2023-04-02T10:12:48;5.50;;;2.80;;
21430;SDS011;10876;49.038;10.608;2023-04-02T10:15:23;4.53;;;2.90;;
21430;SDS011;10876;49.038;10.608;2023-04-02T10:17:58;4.10;;;2.83;;
21430;SDS011;10876;49.038;10.608;2023-04-02T10:20:32;4.40;;;3.00;;
21430;SDS011;10876;49.038;10.608;2023-04-02T10:23:03;3.78;;;2.78;;
21430;SDS011;10876;49.038;10.608;2023-04-02T10:25:30;6.50;;;3.58;;
21430;SDS011;10876;49.038;10.608;2023-04-02T10:28:07;4.68;;;3.13;;
21430;SDS011;10876;49.038;10.608;2023-04-02T10:30:39;6.00;;;2.92;;
21430;SDS011;10876;49.038;10.608;2023-04-02T10:33:20;5.10;;;3.20;;
21430;SDS011;10876;49.038;10.608;2023-04-02T10:35:51;6.47;;;4.38;;
21430;SDS011;10876;49.038;10.608;2023-04-02T10:38:30;6.53;;;4.78;;
21430;SDS011;10876;49.038;10.608;2023-04-02T10:41:10;4.72;;;3.15;;
21430;SDS011;10876;49.038;10.608;2023-04-02T10:43:52;4.88;;;3.63;;
21430;SDS011;10876;49.038;10.608;2023-04-02T10:46:29;6.43;;;3.97;;
21430;SDS011;10876;49.038;10.608;2023-04-02T10:49:03;4.38;;;3.10;;
21430;SDS011;10876;49.038;10.608;2023-04-02T10:51:42;5.13;;;3.20;;
21430;SDS011;10876;49.038;10.608;2023-04-02T10:54:22;6.20;;;3.30;;
21430;SDS011;10876;49.038;10.608;2023-04-02T10:57:01;3.97;;;2.90;;
21430;SDS011;10876;49.038;10.608;2023-04-02T10:59:33;2.13;;;1.58;;
21430;SDS011;10876;49.038;10.608;2023-04-02T11:02:05;0.60;;;0.60;;
21430;SDS011;10876;49.038;10.608;2023-04-02T11:04:46;0.40;;;0.40;;
21430;SDS011;10876;49.038;10.608;2023-04-02T11:07:13;1.10;;;0.50;;
21430;SDS011;10876;49.038;10.608;2023-04-02T11:09:46;0.40;;;0.40;;
21430;SDS011;10876;49.038;10.608;2023-04-02T11:12:18;0.50;;;0.50;;
21430;SDS011;10876;49.038;10.608;2023-04-02T11:14:48;0.60;;;0.60;;
21430;SDS011;10876;49.038;10.608;2023-04-02T11:17:17;0.70;;;0.70;;
21430;SDS011;10876;49.038;10.608;2023-04-02T11:19:46;1.15;;;0.70;;
21430;SDS011;10876;49.038;10.608;2023-04-02T11:22:13;0.80;;;0.70;;
21430;SDS011;10876;49.038;10.608;2023-04-02T11:24:42;0.60;;;0.60;;
21430;SDS011;10876;49.038;10.608;2023-04-02T11:27:16;0.60;;;0.60;;
21430;SDS011;10876;49.038;10.608;2023-04-02T11:29:49;0.80;;;0.80;;
21430;SDS011;10876;49.038;10.608;2023-04-02T11:41:14;1.20;;;1.10;;
21430;SDS011;10876;49.038;10.608;2023-04-02T11:44:23;2.15;;;0.90;;
21430;SDS011;10876;49.038;10.608;2023-04-02T11:46:50;1.45;;;1.25;;
21430;SDS011;10876;49.038;10.608;2023-04-02T11:49:36;1.48;;;1.38;;
21430;SDS011;10876;49.038;10.608;2023-04-02T11:52:25;1.98;;;1.77;;
21430;SDS011;10876;49.038;10.608;2023-04-02T11:55:02;1.90;;;1.80;;
21430;SDS011;10876;49.038;10.608;2023-04-02T11:57:59;2.17;;;1.83;;
21430;SDS011;10876;49.038;10.608;2023-04-02T12:00:54;1.52;;;1.27;;
21430;SDS011;10876;49.038;10.608;2023-04-02T12:06:52;1.30;;;1.20;;
21430;SDS011;10876;49.038;10.608;2023-04-02T12:09:27;1.13;;;1.05;;
21430;SDS011;10876;49.038;10.608;2023-04-02T12:11:57;1.15;;;1.05;;
21430;SDS011;10876;49.038;10.608;2023-04-02T12:14:30;1.15;;;1.05;;
21430;SDS011;10876;49.038;10.608;2023-04-02T12:17:14;1.05;;;1.05;;
21430;SDS011;10876;49.038;10.608;2023-04-02T12:19:50;1.15;;;1.05;;
21430;SDS011;10876;49.038;10.608;2023-04-02T12:22:19;1.10;;;0.98;;
21430;SDS011;10876;49.038;10.608;2023-04-02T12:24:48;1.02;;;1.00;;
21430;SDS011;10876;49.038;10.608;2023-04-02T12:27:17;1.10;;;1.00;;
21430;SDS011;10876;49.038;10.608;2023-04-02T12:29:47;1.38;;;1.08;;
21430;SDS011;10876;49.038;10.608;2023-04-02T12:32:19;0.90;;;0.90;;
21430;SDS011;10876;49.038;10.608;2023-04-02T12:34:51;1.58;;;1.20;;
21430;SDS011;10876;49.038;10.608;2023-04-02T12:37:20;2.33;;;1.60;;
21430;SDS011;10876;49.038;10.608;2023-04-02T12:39:52;1.88;;;1.30;;
21430;SDS011;10876;49.038;10.608;2023-04-02T12:42:24;1.52;;;1.42;;
21430;SDS011;10876;49.038;10.608;2023-04-02T12:44:52;1.30;;;1.20;;
21430;SDS011;10876;49.038;10.608;2023-04-02T12:47:21;1.45;;;1.30;;
21430;SDS011;10876;49.038;10.608;2023-04-02T12:49:48;1.20;;;1.10;;
21430;SDS011;10876;49.038;10.608;2023-04-02T12:52:16;1.33;;;1.23;;
21430;SDS011;10876;49.038;10.608;2023-04-02T12:54:46;1.17;;;1.08;;
21430;SDS011;10876;49.038;10.608;2023-04-02T12:57:19;1.05;;;1.00;;
21430;SDS011;10876;49.038;10.608;2023-04-02T12:59:58;0.98;;;0.98;;
21430;SDS011;10876;49.038;10.608;2023-04-02T13:02:31;1.40;;;1.20;;
21430;SDS011;10876;49.038;10.608;2023-04-02T13:05:07;2.00;;;1.05;;
21430;SDS011;10876;49.038;10.608;2023-04-02T13:07:35;1.27;;;1.17;;
21430;SDS011;10876;49.038;10.608;2023-04-02T13:10:03;1.23;;;1.10;;
21430;SDS011;10876;49.038;10.608;2023-04-02T13:12:32;1.30;;;1.20;;
21430;SDS011;10876;49.038;10.608;2023-04-02T13:15:01;1.30;;;1.20;;
21430;SDS011;10876;49.038;10.608;2023-04-02T13:17:37;1.48;;;1.38;;
21430;SDS011;10876;49.038;10.608;2023-04-02T13:22:58;1.20;;;1.10;;
21430;SDS011;10876;49.038;10.608;2023-04-02T13:25:27;1.30;;;1.20;;
21430;SDS011;10876;49.038;10.608;2023-04-02T13:27:55;4.25;;;1.20;;
21430;SDS011;10876;49.038;10.608;2023-04-02T13:30:23;1.27;;;1.17;;
21430;SDS011;10876;49.038;10.608;2023-04-02T13:32:53;1.23;;;1.13;;
21430;SDS011;10876;49.038;10.608;2023-04-02T13:35:20;1.98;;;1.20;;
21430;SDS011;10876;49.038;10.608;2023-04-02T13:37:48;1.52;;;1.30;;
21430;SDS011;10876;49.038;10.608;2023-04-02T13:40:15;1.40;;;1.30;;
21430;SDS011;10876;49.038;10.608;2023-04-02T13:42:44;1.40;;;1.20;;
21430;SDS011;10876;49.038;10.608;2023-04-02T13:45:20;1.50;;;1.40;;
21430;SDS011;10876;49.038;10.608;2023-04-02T13:47:49;1.40;;;1.30;;
21430;SDS011;10876;49.038;10.608;2023-04-02T13:50:18;1.55;;;1.45;;
21430;SDS011;10876;49.038;10.608;2023-04-02T13:52:46;1.20;;;1.10;;
21430;SDS011;10876;49.038;10.608;2023-04-02T13:55:14;1.48;;;1.33;;
21430;SDS011;10876;49.038;10.608;2023-04-02T13:57:42;1.20;;;1.10;;
21430;SDS011;10876;49.038;10.608;2023-04-02T14:00:10;1.40;;;1.30;;
21430;SDS011;10876;49.038;10.608;2023-04-02T14:02:38;2.15;;;1.58;;
21430;SDS011;10876;49.038;10.608;2023-04-02T14:05:15;1.48;;;1.38;;
21430;SDS011;10876;49.038;10.608;2023-04-02T14:07:56;1.83;;;1.50;;
21430;SDS011;10876;49.038;10.608;2023-04-02T14:10:34;1.48;;;1.38;;
21430;SDS011;10876;49.038;10.608;2023-04-02T14:13:19;1.30;;;1.20;;
21430;SDS011;10876;49.038;10.608;2023-04-02T14:15:57;2.17;;;1.55;;
21430;SDS011;10876;49.038;10.608;2023-04-02T14:18:39;2.83;;;1.60;;
21430;SDS011;10876;49.038;10.608;2023-04-02T14:21:25;3.45;;;1.80;;
21430;SDS011;10876;49.038;10.608;2023-04-02T14:24:03;1.88;;;1.50;;
21430;SDS011;10876;49.038;10.608;2023-04-02T14:26:45;1.60;;;1.40;;
21430;SDS011;10876;49.038;10.608;2023-04-02T14:29:23;2.50;;;1.80;;
21430;SDS011;10876;49.038;10.608;2023-04-02T14:31:58;2.22;;;1.90;;
21430;SDS011;10876;49.038;10.608;2023-04-02T14:34:32;2.97;;;2.20;;
21430;SDS011;10876;49.038;10.608;2023-04-02T14:37:11;3.42;;;1.70;;
21430;SDS011;10876;49.038;10.608;2023-04-02T14:39:55;1.88;;;1.67;;
21430;SDS011;10876;49.038;10.608;2023-04-02T14:42:30;2.78;;;1.90;;
21430;SDS011;10876;49.038;10.608;2023-04-02T14:45:04;2.00;;;1.80;;
21430;SDS011;10876;49.038;10.608;2023-04-02T14:47:38;1.92;;;1.77;;
21430;SDS011;10876;49.038;10.608;2023-04-02T14:50:11;2.17;;;1.60;;
21430;SDS011;10876;49.038;10.608;2023-04-02T14:52:44;2.67;;;2.10;;
21430;SDS011;10876;49.038;10.608;2023-04-02T14:55:17;3.20;;;2.05;;
21430;SDS011;10876;49.038;10.608;2023-04-02T14:57:51;2.33;;;2.00;;
21430;SDS011;10876;49.038;10.608;2023-04-02T15:00:25;2.80;;;2.30;;
21430;SDS011;10876;49.038;10.608;2023-04-02T15:02:57;3.05;;;2.42;;
21430;SDS011;10876;49.038;10.608;2023-04-02T15:05:34;3.17;;;2.20;;
21430;SDS011;10876;49.038;10.608;2023-04-02T15:08:12;2.55;;;2.35;;
21430;SDS011;10876;49.038;10.608;2023-04-02T15:10:47;4.47;;;2.70;;
21430;SDS011;10876;49.038;10.608;2023-04-02T15:13:24;5.90;;;2.70;;
21430;SDS011;10876;49.038;10.608;2023-04-02T15:15:57;2.63;;;2.03;;
21430;SDS011;10876;49.038;10.608;2023-04-02T15:18:36;3.17;;;2.40;;
21430;SDS011;10876;49.038;10.608;2023-04-02T15:21:08;2.35;;;2.00;;
21430;SDS011;10876;49.038;10.608;2023-04-02T15:23:52;3.40;;;2.28;;
21430;SDS011;10876;49.038;10.608;2023-04-02T15:26:27;2.83;;;2.53;;
21430;SDS011;10876;49.038;10.608;2023-04-02T15:29:09;3.67;;;2.63;;
21430;SDS011;10876;49.038;10.608;2023-04-02T15:31:45;3.35;;;2.55;;
21430;SDS011;10876;49.038;10.608;2023-04-02T15:34:20;3.45;;;2.53;;